Terminal Aerodrome Forecast
Issued by NWS Shreveport, LA

Home | Current Version | Previous Version | Text Only | Print | Product List | Glossary On
Versions: 1 2 3 4 5 6 7 8 9 10 11 12 13 14 15
190
FTUS44 KSHV 110540
TAFTXK
TAF
KTXK 110540Z 1106/1206 21009KT P6SM SKC
     FM111400 27005KT P6SM FEW300
     FM111700 35006KT P6SM SCT300
     FM112100 06004KT P6SM FEW250=

USA.gov is the U.S. government's official web portal to all federal, state and local government web resources and services.